This is the latest recevied weather packets stored in our database for station/object HR1LRC-21. If no packets are shown the sender has not sent any weather packets the latest 10 day(s).
| Time | Temp. | Humidity | Pressure | Rain* | Wind** | Luminosity | Snow |
|---|---|---|---|---|---|---|---|
| 1778260637 | 25° C | 42% | 1012 hPa | 0 mm | - | - | - |
| 1778260036 | 25° C | 42% | 1012 hPa | 0 mm | - | - | - |
| 1778259436 | 25° C | 41% | 1012 hPa | 0 mm | - | - | - |
| 1778258835 | 24.44° C | 45% | 1013 hPa | 0 mm | - | - | - |
| 1778258234 | 24.44° C | 45% | 1013 hPa | 0 mm | - | - | - |
| 1778257634 | 23.89° C | 54% | 1014 hPa | 0 mm | - | - | - |
| 1778257033 | 23.33° C | 55% | 1013 hPa | 0 mm | - | - | - |
| 1778256432 | 23.33° C | 55% | 1013 hPa | 0 mm | - | - | - |
| 1778255832 | 23.33° C | 55% | 1013 hPa | 0 mm | - | - | - |
| 1778255231 | 23.33° C | 55% | 1013 hPa | 0 mm | - | - | - |
| 1778254631 | 21.67° C | 63% | 1013 hPa | 0 mm | - | - | - |
| 1778254030 | 21.67° C | 63% | 1014 hPa | 0 mm | - | - | - |
| 1778253429 | 21.67° C | 63% | 1014 hPa | 0 mm | - | - | - |
| 1778252829 | 21.67° C | 63% | 1014 hPa | 0 mm | - | - | - |
| 1778252228 | 21.11° C | 64% | 1014 hPa | 0 mm | - | - | - |
| 1778251627 | 21.11° C | 65% | 1014 hPa | 0 mm | - | - | - |
| 1778251027 | 19.44° C | 73% | 1014 hPa | 0 mm | - | - | - |
| 1778250426 | 19.44° C | 73% | 1014 hPa | 0 mm | - | - | - |
| 1778249825 | 19.44° C | 73% | 1014 hPa | 0 mm | - | - | - |
| 1778249225 | 19.44° C | 73% | 1014 hPa | 0 mm | - | - | - |
| 1778248624 | 19.44° C | 73% | 1014 hPa | 0 mm | - | - | - |
| 1778248024 | 19.44° C | 73% | 1014 hPa | 0 mm | - | - | - |
| 1778247423 | 19.44° C | 73% | 1014 hPa | 0 mm | - | - | - |
| 1778246822 | 19.44° C | 73% | 1014 hPa | 0 mm | - | - | - |
| 1778246222 | 19.44° C | 73% | 1014 hPa | 0 mm | - | - | - |
* Rain latest hour (hover to see other rain measurements)
** Current wind speed in m/s (hover to see current wind gust speed)